Terminal Aerodrome Forecast
Issued by NWS

Home | Current Version | Previous Version | Text Only | Print | Product List | Glossary On
Versions: 1 2 3 4 5 6 7 8 9 10 11 12 13 14 15 16
000
FTUS43 KDDC 191100
TAFHYS
TAF
KHYS 191128Z 1912/2012 17014G20KT P6SM SCT250
     FM191500 20020G30KT P6SM SCT250
     FM192300 18015G22KT P6SM SCT080 BKN200
     FM200700 17011KT P6SM BKN200=

USA.gov is the U.S. government's official web portal to all federal, state and local government web resources and services.